Terminal Aerodrome Forecast
Issued by NWS Portland, OR

Home | Current Version | Previous Version | Text Only | Print | Product List | Glossary On
Versions: 1 2 3 4 5 6 7 8 9 10 11 12 13 14 15
000
FTUS46 KPQR 042326
TAFTTD
TAF
KTTD 042326Z 0500/0524 31006KT P6SM VCSH BKN025
     FM050200 31005KT P6SM VCSH SCT025 BKN040
     FM051000 VRB03KT P6SM BKN025 OVC035
     FM051900 28006KT P6SM FEW030 SCT060 BKN120=

USA.gov is the U.S. government's official web portal to all federal, state and local government web resources and services.